Time;durP1;ratioP1;P1;durP2;ratioP2;P2;SDS_P1;SDS_P2;PMS_P1;PMS_P2;Temp;Humidity;BMP_temperature;BMP_pressure;BME280_temperature;BME280_humidity;BME280_pressure;Samples;Min_cycle;Max_cycle;Signal;HPM_P1;HPM_P2
2021/10/23 00:01:08;;;;;;;;;3.00;3.00;;;;;21.17;41.20;102135.22;5018485;28;45209;-48
2021/10/23 00:03:33;;;;;;;;;5.25;5.25;;;;;21.17;41.24;102143.16;5018211;28;45265;-47
2021/10/23 00:05:58;;;;;;;;;5.00;4.50;;;;;21.17;41.02;102145.78;5018513;28;45218;-52
2021/10/23 00:08:25;;;;;;;;;5.75;5.00;;;;;21.18;41.54;102139.59;5017665;28;45356;-47
2021/10/23 00:10:50;;;;;;;;;6.25;5.00;;;;;21.17;41.47;102133.44;5018247;28;45424;-49
2021/10/23 00:13:15;;;;;;;;;7.75;5.25;;;;;21.16;41.25;102126.47;5018205;28;45273;-51
2021/10/23 00:15:41;;;;;;;;;3.50;3.50;;;;;21.17;41.49;102137.88;5018238;28;45736;-57
2021/10/23 00:18:07;;;;;;;;;5.50;4.75;;;;;21.17;41.08;102140.50;5017160;28;45724;-52
2021/10/23 00:20:32;;;;;;;;;5.00;4.00;;;;;21.17;40.97;102137.88;5018460;28;46080;-51
2021/10/23 00:22:57;;;;;;;;;8.00;5.50;;;;;21.17;41.14;102143.16;5017838;28;45359;-53
2021/10/23 00:25:23;;;;;;;;;8.75;5.25;;;;;21.16;40.85;102136.16;5018273;28;45357;-51
2021/10/23 00:27:48;;;;;;;;;6.00;6.00;;;;;21.16;41.04;102139.66;5050475;28;45553;-51
2021/10/23 00:30:14;;;;;;;;;7.50;5.25;;;;;21.15;41.40;102131.78;5017893;28;45423;-58
2021/10/23 00:32:40;;;;;;;;;4.75;4.75;;;;;21.13;41.64;102136.25;5017771;28;45301;-54
2021/10/23 00:35:07;;;;;;;;;5.50;4.25;;;;;21.16;41.30;102146.69;5018343;28;45348;-52
2021/10/23 00:37:32;;;;;;;;;4.75;4.75;;;;;21.15;41.51;102145.84;5018463;28;45323;-53
2021/10/23 00:39:58;;;;;;;;;5.25;4.50;;;;;21.15;41.11;102150.25;5017732;28;48014;-53
2021/10/23 00:42:23;;;;;;;;;4.50;4.50;;;;;21.13;41.24;102152.94;5017797;28;45324;-53
2021/10/23 00:44:49;;;;;;;;;9.25;6.25;;;;;21.13;41.46;102147.69;5017839;28;45285;-55
2021/10/23 00:47:18;;;;;;;;;5.25;5.25;;;;;21.15;40.99;102139.69;5018175;28;45456;-60
2021/10/23 00:49:45;;;;;;;;;7.25;6.25;;;;;21.14;41.13;102141.50;5017557;28;45447;-58
2021/10/23 00:52:10;;;;;;;;;6.00;6.00;;;;;21.14;41.23;102143.25;5017662;28;45673;-54
2021/10/23 00:54:37;;;;;;;;;8.25;6.25;;;;;21.14;41.36;102137.97;5016638;28;45248;-56
2021/10/23 00:57:04;;;;;;;;;5.50;5.50;;;;;21.14;41.36;102148.53;5018209;28;45392;-60
2021/10/23 00:59:30;;;;;;;;;8.00;6.00;;;;;21.13;41.31;102141.53;5016057;28;48612;-60
2021/10/23 01:01:55;;;;;;;;;6.00;5.75;;;;;21.12;41.30;102145.94;5017312;28;45296;-56
2021/10/23 01:04:22;;;;;;;;;6.00;6.00;;;;;21.12;41.27;102143.31;5017199;28;45262;-59
2021/10/23 01:06:48;;;;;;;;;5.25;5.25;;;;;21.12;41.18;102138.03;5017824;28;45435;-63
2021/10/23 01:09:15;;;;;;;;;5.00;5.00;;;;;21.12;41.66;102129.25;5017291;28;45603;-63
2021/10/23 01:11:42;;;;;;;;;6.00;5.00;;;;;21.11;41.24;102133.69;5017405;28;45250;-58
2021/10/23 01:14:17;;;;;;;;;4.75;4.75;;;;;21.12;41.48;102139.81;5017783;28;45330;-57
2021/10/23 01:16:43;;;;;;;;;7.50;6.00;;;;;21.12;41.71;102142.44;5017543;28;45226;-56
2021/10/23 01:19:10;;;;;;;;;6.00;6.00;;;;;21.11;41.42;102144.22;5017214;28;46491;-48
2021/10/23 01:21:36;;;;;;;;;7.25;7.25;;;;;21.11;41.50;102132.84;5017327;28;45451;-50
2021/10/23 01:24:04;;;;;;;;;6.50;6.00;;;;;21.11;41.44;102133.69;5017092;28;45445;-47
2021/10/23 01:26:30;;;;;;;;;6.00;6.00;;;;;21.11;41.63;102135.47;5017311;28;45233;-54
2021/10/23 01:28:55;;;;;;;;;6.00;5.00;;;;;21.12;41.14;102134.53;5017122;28;45590;-47
2021/10/23 01:31:21;;;;;;;;;8.00;5.00;;;;;21.11;41.04;102122.28;5016929;28;45392;-50
2021/10/23 01:33:46;;;;;;;;;5.75;5.50;;;;;21.11;41.21;102122.28;5016992;28;45347;-47
2021/10/23 01:36:17;;;;;;;;;5.00;4.50;;;;;21.08;41.43;102119.75;5015942;28;45341;-52
2021/10/23 01:38:44;;;;;;;;;8.50;6.00;;;;;21.11;41.40;102123.13;5016695;28;45545;-56
2021/10/23 01:41:10;;;;;;;;;7.00;4.75;;;;;21.11;41.29;102127.56;5016842;28;45370;-48
2021/10/23 01:43:35;;;;;;;;;4.50;4.50;;;;;21.09;41.40;102118.84;5017214;28;45436;-56
2021/10/23 01:46:02;;;;;;;;;5.00;5.00;;;;;21.10;41.48;102115.31;5017150;28;45321;-54
2021/10/23 01:48:28;;;;;;;;;4.75;4.75;;;;;21.10;41.08;102125.84;5016753;28;46382;-52
2021/10/23 01:50:53;;;;;;;;;4.75;4.00;;;;;21.09;41.42;102119.69;5016956;28;45416;-54
2021/10/23 01:53:18;;;;;;;;;5.00;3.50;;;;;21.06;41.48;102113.69;5016742;28;45310;-52
2021/10/23 01:55:45;;;;;;;;;6.25;5.00;;;;;21.09;41.26;102118.84;5016882;28;45266;-47
2021/10/23 01:58:10;;;;;;;;;5.75;5.00;;;;;21.06;41.17;102108.41;5016366;28;45448;-54
2021/10/23 02:00:36;;;;;;;;;7.25;6.00;;;;;21.09;41.42;102108.31;5016922;28;45442;-49
2021/10/23 02:03:01;;;;;;;;;4.50;4.50;;;;;21.08;41.20;102109.22;5016517;28;45923;-47
2021/10/23 02:05:27;;;;;;;;;4.00;4.00;;;;;21.07;41.36;102094.31;5016971;28;45312;-47
2021/10/23 02:07:52;;;;;;;;;4.00;4.00;;;;;21.08;41.50;102101.31;5016219;28;45498;-50
2021/10/23 02:10:18;;;;;;;;;5.00;5.00;;;;;21.08;41.09;102104.78;5016433;28;45349;-53
2021/10/23 02:12:43;;;;;;;;;5.00;5.00;;;;;21.08;41.33;102101.31;5016393;28;45368;-50
2021/10/23 02:15:09;;;;;;;;;6.00;6.00;;;;;21.05;41.60;102086.47;5016884;28;45507;-51
2021/10/23 02:17:36;;;;;;;;;3.25;3.25;;;;;21.07;41.51;102089.88;5016576;28;45543;-55
2021/10/23 02:20:03;;;;;;;;;5.50;4.50;;;;;21.05;41.52;102085.59;5016250;28;45672;-57
2021/10/23 02:22:29;;;;;;;;;4.25;4.00;;;;;21.07;41.48;102086.41;5016361;28;45319;-51
2021/10/23 02:24:54;;;;;;;;;6.25;5.00;;;;;21.06;41.03;102082.06;5016414;28;45646;-49
2021/10/23 02:27:20;;;;;;;;;4.00;3.00;;;;;21.07;41.19;102078.50;5016197;28;45517;-50
2021/10/23 02:29:45;;;;;;;;;7.00;7.00;;;;;21.03;41.15;102077.75;5016141;28;45387;-56
2021/10/23 02:32:10;;;;;;;;;5.00;4.50;;;;;21.07;41.20;102078.50;5015891;28;45502;-54
2021/10/23 02:34:36;;;;;;;;;5.50;4.50;;;;;21.06;41.54;102076.78;5016502;28;45423;-57
2021/10/23 02:37:01;;;;;;;;;5.75;4.00;;;;;21.06;41.49;102082.06;5016103;28;45304;-59
2021/10/23 02:39:27;;;;;;;;;3.50;3.50;;;;;21.06;41.46;102077.63;5016146;28;45495;-54
2021/10/23 02:41:52;;;;;;;;;4.50;3.75;;;;;21.06;41.07;102076.78;5016266;28;45323;-61
2021/10/23 02:44:18;;;;;;;;;3.50;3.50;;;;;21.05;40.96;102082.97;5014918;28;45654;-51
2021/10/23 02:46:43;;;;;;;;;5.00;5.00;;;;;21.05;40.91;102081.22;5016067;28;45515;-52
2021/10/23 02:49:09;;;;;;;;;5.50;4.25;;;;;21.05;41.41;102088.25;5016263;28;45504;-53
2021/10/23 02:51:35;;;;;;;;;3.75;3.75;;;;;21.05;41.10;102098.78;5016166;28;45433;-60
2021/10/23 02:54:01;;;;;;;;;4.75;4.00;;;;;21.06;41.46;102100.50;5016158;28;45213;-60
2021/10/23 02:56:26;;;;;;;;;4.00;3.50;;;;;21.05;41.39;102101.41;5047870;28;45399;-61
2021/10/23 02:58:52;;;;;;;;;5.25;4.50;;;;;21.04;41.19;102099.69;5015696;28;45320;-61
2021/10/23 03:01:18;;;;;;;;;4.75;4.25;;;;;21.04;41.50;102102.34;5015859;28;45179;-55
2021/10/23 03:03:43;;;;;;;;;3.25;3.25;;;;;21.04;41.16;102099.69;5015882;28;45630;-48
2021/10/23 03:06:09;;;;;;;;;5.50;5.50;;;;;21.01;41.17;102096.25;5016158;28;45257;-62
2021/10/23 03:08:34;;;;;;;;;3.25;2.50;;;;;21.03;41.41;102098.84;5015715;28;45357;-62
2021/10/23 03:11:00;;;;;;;;;5.00;5.00;;;;;21.04;41.39;102104.97;5015734;28;45382;-62
2021/10/23 03:13:25;;;;;;;;;4.75;4.00;;;;;21.04;41.31;102099.69;5015743;28;45327;-60
2021/10/23 03:15:53;;;;;;;;;5.00;5.00;;;;;21.05;41.28;102106.69;5015310;28;46292;-60
2021/10/23 03:18:19;;;;;;;;;4.25;4.25;;;;;21.03;41.41;102088.31;5015514;28;45439;-60
2021/10/23 03:20:45;;;;;;;;;6.00;4.75;;;;;21.03;41.55;102093.56;5015685;28;45458;-59
2021/10/23 03:23:15;;;;;;;;;4.00;4.00;;;;;21.03;41.11;102097.97;5016101;28;45212;-60
2021/10/23 03:25:41;;;;;;;;;3.25;3.25;;;;;21.03;41.17;102105.88;5015777;28;46546;-56
2021/10/23 03:28:06;;;;;;;;;3.25;3.25;;;;;21.03;41.13;102105.88;5015549;28;45381;-50
2021/10/23 03:30:31;;;;;;;;;5.50;4.25;;;;;21.01;41.36;102106.78;5047312;28;47616;-58
2021/10/23 03:32:57;;;;;;;;;5.25;4.00;;;;;21.01;41.10;102098.03;5015826;28;45609;-60
2021/10/23 03:35:22;;;;;;;;;4.00;3.25;;;;;21.01;41.14;102101.53;5047336;28;46523;-57
2021/10/23 03:37:47;;;;;;;;;3.50;3.50;;;;;21.02;41.17;102102.41;5015299;28;46165;-62
2021/10/23 03:40:13;;;;;;;;;3.00;3.00;;;;;21.03;41.41;102104.13;5015828;28;45399;-50
2021/10/23 03:42:38;;;;;;;;;3.75;3.75;;;;;21.01;41.36;102098.88;5015546;28;45700;-57
2021/10/23 03:45:04;;;;;;;;;4.25;4.25;;;;;21.03;41.36;102097.97;5049402;28;47386;-56
2021/10/23 03:47:31;;;;;;;;;4.75;4.00;;;;;21.01;41.60;102101.53;5018661;28;45416;-56
2021/10/23 03:49:56;;;;;;;;;5.00;4.00;;;;;20.99;41.23;102098.13;5018674;28;45234;-56
2021/10/23 03:52:22;;;;;;;;;7.00;4.00;;;;;21.01;41.36;102096.25;5018763;28;45661;-58
2021/10/23 03:54:47;;;;;;;;;5.00;4.00;;;;;21.02;41.17;102097.13;5018445;28;46171;-54
2021/10/23 03:57:13;;;;;;;;;6.00;4.00;;;;;21.00;41.64;102097.16;5018853;28;45245;-59
2021/10/23 03:59:38;;;;;;;;;3.00;3.00;;;;;21.01;41.42;102080.44;5018692;28;45803;-52
2021/10/23 04:02:03;;;;;;;;;5.00;3.00;;;;;21.00;41.11;102091.91;5018538;28;45402;-60
2021/10/23 04:04:29;;;;;;;;;3.00;3.00;;;;;21.01;41.44;102083.06;5017979;28;46246;-59
2021/10/23 04:06:54;;;;;;;;;4.25;4.25;;;;;20.97;41.19;102072.72;5018169;28;45488;-56
2021/10/23 04:09:20;;;;;;;;;3.00;3.00;;;;;21.00;41.39;102084.00;5017983;28;50241;-57
2021/10/23 04:11:46;;;;;;;;;4.00;3.00;;;;;21.00;40.86;102091.91;5017380;28;45293;-52
2021/10/23 04:14:11;;;;;;;;;3.00;3.00;;;;;21.00;41.38;102083.13;5018278;28;46619;-48
2021/10/23 04:16:37;;;;;;;;;4.00;4.00;;;;;20.99;41.19;102082.31;5018254;28;45763;-53
2021/10/23 04:19:02;;;;;;;;;5.50;4.50;;;;;21.00;40.94;102081.34;5018461;28;45447;-47
2021/10/23 04:21:27;;;;;;;;;3.00;2.75;;;;;21.00;41.60;102083.13;5018445;28;45638;-54
2021/10/23 04:23:53;;;;;;;;;5.00;4.00;;;;;21.00;41.45;102069.97;5017963;28;45700;-47
2021/10/23 04:26:19;;;;;;;;;3.50;3.50;;;;;21.00;41.28;102077.88;5018096;28;45288;-47
2021/10/23 04:28:44;;;;;;;;;3.00;3.00;;;;;20.99;41.03;102092.84;5018337;28;45509;-47
2021/10/23 04:31:09;;;;;;;;;4.25;4.25;;;;;21.00;41.45;102089.25;5018453;28;45577;-47
2021/10/23 04:33:35;;;;;;;;;5.25;3.50;;;;;20.99;41.27;102079.66;5017860;28;46284;-47
2021/10/23 04:36:01;;;;;;;;;3.00;3.00;;;;;20.99;41.44;102092.84;5017850;28;45328;-47
2021/10/23 04:38:27;;;;;;;;;3.00;3.00;;;;;20.99;41.60;102082.31;5018068;28;45340;-50
2021/10/23 04:40:52;;;;;;;;;4.00;4.00;;;;;20.99;41.20;102087.56;5018143;28;45558;-48
2021/10/23 04:43:18;;;;;;;;;3.25;3.25;;;;;20.98;41.31;102075.31;5017885;28;45471;-51
2021/10/23 04:45:43;;;;;;;;;3.00;3.00;;;;;20.99;41.27;102089.34;5017699;28;45468;-47
2021/10/23 04:48:08;;;;;;;;;4.25;3.00;;;;;20.99;41.25;102097.22;5018011;28;45316;-48
2021/10/23 04:50:34;;;;;;;;;2.50;2.50;;;;;20.97;41.17;102094.66;5017954;28;45228;-50
2021/10/23 04:53:00;;;;;;;;;5.25;4.00;;;;;20.97;41.34;102093.78;5017646;28;46029;-46
2021/10/23 04:55:25;;;;;;;;;3.50;3.00;;;;;20.97;41.02;102093.78;5017087;28;45427;-49
2021/10/23 04:57:51;;;;;;;;;3.75;3.75;;;;;20.95;40.96;102091.22;5016416;28;45397;-46
2021/10/23 05:00:16;;;;;;;;;4.00;3.00;;;;;20.96;41.46;102092.06;5016829;28;45454;-48
2021/10/23 05:02:42;;;;;;;;;3.50;3.50;;;;;20.95;41.09;102095.63;5017420;28;45430;-47
2021/10/23 05:05:08;;;;;;;;;5.00;3.50;;;;;20.95;41.63;102096.50;5017476;28;45310;-46
2021/10/23 05:07:33;;;;;;;;;2.25;2.25;;;;;20.97;41.41;102097.31;5017742;28;45269;-51
2021/10/23 05:09:59;;;;;;;;;2.75;2.50;;;;;20.96;40.95;102102.63;5017824;28;45543;-49
2021/10/23 05:12:25;;;;;;;;;6.00;6.00;;;;;20.95;41.43;102100.88;5017323;28;46370;-53
2021/10/23 05:14:51;;;;;;;;;16.50;12.00;;;;;20.95;41.34;102106.16;5017661;28;45756;-46
2021/10/23 05:17:16;;;;;;;;;49.00;38.75;;;;;20.95;41.53;102107.03;5017729;28;45285;-50
2021/10/23 05:19:41;;;;;;;;;66.75;54.00;;;;;20.95;41.50;102109.66;5017388;28;45618;-47
2021/10/23 05:22:07;;;;;;;;;79.25;73.00;;;;;20.95;41.53;102106.16;5017126;28;45456;-48
2021/10/23 05:24:33;;;;;;;;;76.50;66.75;;;;;20.95;41.08;102114.94;5017166;28;45611;-46
2021/10/23 05:26:58;;;;;;;;;107.75;100.25;;;;;20.93;41.62;102106.22;5017178;28;45313;-54
2021/10/23 05:29:24;;;;;;;;;136.00;130.50;;;;;20.95;41.47;102108.78;5017289;28;45466;-60
2021/10/23 05:31:49;;;;;;;;;161.75;149.50;;;;;20.92;41.55;102107.13;5017202;28;45426;-53
2021/10/23 05:34:15;;;;;;;;;164.67;156.33;;;;;20.92;41.85;102101.03;5017160;28;45562;-56
2021/10/23 05:36:40;;;;;;;;;172.67;161.00;;;;;20.92;41.14;102107.13;5017066;28;45308;-54
2021/10/23 05:39:05;;;;;;;;;169.25;160.50;;;;;20.92;41.55;102109.78;5017129;28;45618;-50
2021/10/23 05:41:31;;;;;;;;;178.67;161.67;;;;;20.89;41.52;102103.75;5016822;28;45436;-48
2021/10/23 05:43:56;;;;;;;;;173.67;160.00;;;;;20.92;41.29;102104.50;5016826;28;45324;-51
2021/10/23 05:46:21;;;;;;;;;166.33;156.33;;;;;20.93;41.21;102108.88;5016744;28;45399;-49
2021/10/23 05:48:47;;;;;;;;;165.33;157.67;;;;;20.92;41.15;102111.56;5017251;28;45497;-46
2021/10/23 05:51:13;;;;;;;;;164.75;157.50;;;;;20.93;41.27;102110.66;5016554;28;45357;-46
2021/10/23 05:53:39;;;;;;;;;173.75;165.00;;;;;20.90;41.08;102101.06;5016632;28;45392;-46
2021/10/23 05:56:04;;;;;;;;;164.50;150.00;;;;;20.92;41.75;102109.78;5016618;28;45332;-46
2021/10/23 05:58:30;;;;;;;;;171.25;158.00;;;;;20.93;41.45;102106.22;5016794;28;45490;-47
2021/10/23 06:01:00;;;;;;;;;172.25;160.25;;;;;20.93;41.51;102108.03;5016410;28;45436;-50
2021/10/23 06:03:29;;;;;;;;;167.75;154.25;;;;;20.92;41.38;102115.03;5015595;28;45340;-46
2021/10/23 06:05:56;;;;;;;;;156.00;147.75;;;;;20.92;41.33;102117.69;5016168;28;45253;-49
2021/10/23 06:08:21;;;;;;;;;151.50;147.25;;;;;20.92;41.16;102119.47;5016483;28;45183;-52
2021/10/23 06:10:47;;;;;;;;;158.25;148.25;;;;;20.92;41.58;102117.69;5016131;28;46291;-53
2021/10/23 06:13:13;;;;;;;;;154.50;144.00;;;;;20.91;41.68;102123.88;5016394;28;45627;-51
2021/10/23 06:15:38;;;;;;;;;149.00;138.00;;;;;20.92;41.56;102127.38;5016451;28;45187;-50
2021/10/23 06:18:03;;;;;;;;;150.00;142.67;;;;;20.89;41.69;102117.78;5016571;28;45162;-49
2021/10/23 06:20:29;;;;;;;;;148.50;137.50;;;;;20.91;41.59;102129.13;5048306;28;47216;-53
2021/10/23 06:22:55;;;;;;;;;145.75;137.00;;;;;20.91;41.56;102131.78;5015053;28;45494;-53
2021/10/23 06:25:21;;;;;;;;;141.33;132.00;;;;;20.89;41.67;102130.97;5016680;28;45453;-57
2021/10/23 06:27:47;;;;;;;;;140.00;131.00;;;;;20.89;41.37;102120.41;5015185;28;45341;-57
2021/10/23 06:30:14;;;;;;;;;138.25;129.25;;;;;20.91;41.75;102133.56;5016060;28;47104;-51
2021/10/23 06:32:50;;;;;;;;;131.25;122.25;;;;;20.88;41.85;102131.91;5016274;28;45443;-50
2021/10/23 06:35:16;;;;;;;;;126.75;119.75;;;;;20.90;41.59;102135.31;5016227;28;45359;-52
2021/10/23 06:37:42;;;;;;;;;132.00;124.00;;;;;20.90;41.39;102140.59;5016432;28;45245;-48
2021/10/23 06:40:08;;;;;;;;;129.50;119.00;;;;;20.91;41.63;102150.22;5016062;28;46156;-52
2021/10/23 06:42:34;;;;;;;;;121.50;116.00;;;;;20.89;41.57;102138.03;5015973;28;45248;-58
2021/10/23 06:45:00;;;;;;;;;112.25;107.50;;;;;20.88;41.74;102145.09;5014810;28;45586;-53
2021/10/23 06:47:25;;;;;;;;;113.75;101.75;;;;;20.91;41.46;102147.59;5016262;28;45515;-51
2021/10/23 06:49:51;;;;;;;;;107.33;103.00;;;;;20.88;41.76;102145.09;5016253;28;45445;-53
2021/10/23 06:52:17;;;;;;;;;113.25;108.00;;;;;20.89;41.29;102154.69;5015778;28;45439;-50
2021/10/23 06:54:43;;;;;;;;;112.75;103.25;;;;;20.85;41.67;102147.81;5016003;28;45431;-60
2021/10/23 06:57:08;;;;;;;;;89.50;84.25;;;;;20.94;41.58;102162.44;5014765;28;45434;-57
2021/10/23 06:59:34;;;;;;;;;95.50;88.25;;;;;20.91;41.61;102158.13;5015770;28;45409;-55
2021/10/23 07:01:59;;;;;;;;;84.50;81.50;;;;;20.91;41.01;102163.41;5015756;28;45333;-54
2021/10/23 07:04:24;;;;;;;;;84.75;78.25;;;;;20.89;40.97;102164.38;5015861;28;45344;-55
2021/10/23 07:06:50;;;;;;;;;83.00;76.00;;;;;20.86;40.94;102175.91;5048013;28;45438;-53
2021/10/23 07:09:17;;;;;;;;;81.33;74.00;;;;;20.83;41.49;102182.16;5047568;28;47282;-55
2021/10/23 07:11:42;;;;;;;;;70.00;56.50;;;;;20.81;41.22;102181.34;5015679;28;45643;-54
2021/10/23 07:14:08;;;;;;;;;78.75;70.75;;;;;20.79;41.17;102185.78;5015741;28;45388;-51
2021/10/23 07:16:33;;;;;;;;;74.25;62.25;;;;;20.77;41.05;102189.41;5015862;28;45493;-54
2021/10/23 07:18:58;;;;;;;;;74.75;62.75;;;;;20.74;40.83;102189.47;5049861;28;45346;-55
2021/10/23 07:21:24;;;;;;;;;71.00;56.00;;;;;20.70;41.01;102192.19;5019302;28;45951;-55
2021/10/23 07:23:50;;;;;;;;;71.67;57.67;;;;;20.71;41.31;102198.34;5019004;28;45195;-52
2021/10/23 07:26:15;;;;;;;;;67.75;54.75;;;;;20.69;41.02;102194.91;5019136;28;45339;-51
2021/10/23 07:28:41;;;;;;;;;67.00;53.25;;;;;20.69;41.33;102200.16;5018674;28;46035;-54
2021/10/23 07:31:07;;;;;;;;;67.00;53.50;;;;;20.68;41.10;102199.28;5018770;28;45615;-54
2021/10/23 07:33:33;;;;;;;;;63.75;51.25;;;;;20.66;41.36;102211.69;5018834;28;45324;-54
2021/10/23 07:35:58;;;;;;;;;61.75;49.25;;;;;20.64;41.11;102208.22;5019045;28;45459;-55
2021/10/23 07:38:23;;;;;;;;;58.25;46.00;;;;;20.65;40.96;102214.34;5018846;28;45555;-52
2021/10/23 07:40:49;;;;;;;;;60.33;47.00;;;;;20.65;40.95;102217.84;5018847;28;45482;-52
2021/10/23 07:43:14;;;;;;;;;60.25;47.50;;;;;20.64;40.79;102224.03;5018671;28;45567;-54
2021/10/23 07:45:41;;;;;;;;;56.25;45.75;;;;;20.65;40.95;102220.50;5018801;28;45271;-54
2021/10/23 07:48:06;;;;;;;;;53.50;42.00;;;;;20.55;40.54;102209.38;5018456;28;46521;-53
2021/10/23 07:50:31;;;;;;;;;50.75;41.50;;;;;20.62;41.19;102223.22;5018780;28;45401;-52
2021/10/23 07:53:01;;;;;;;;;51.00;42.25;;;;;20.61;40.86;102229.41;5018944;28;45313;-53
2021/10/23 07:55:26;;;;;;;;;46.75;38.75;;;;;20.62;40.81;102232.88;5019203;28;45543;-47
2021/10/23 07:57:52;;;;;;;;;49.50;39.00;;;;;20.63;40.84;102237.25;5018454;28;45294;-51
2021/10/23 08:00:17;;;;;;;;;47.75;37.75;;;;;20.63;41.10;102238.13;5018372;28;45319;-51
2021/10/23 08:03:08;;;;;;;;;43.25;36.25;;;;;20.64;40.84;102239.84;5017064;28;45310;-51
2021/10/23 08:05:36;;;;;;;;;47.25;39.75;;;;;20.65;40.86;102238.94;5018427;28;45281;-51
2021/10/23 08:08:02;;;;;;;;;43.75;36.75;;;;;20.63;41.16;102238.13;5018370;28;46082;-54
2021/10/23 08:10:30;;;;;;;;;40.75;34.50;;;;;20.62;40.67;102240.78;5018604;28;45981;-54
2021/10/23 08:12:56;;;;;;;;;44.25;34.50;;;;;20.58;40.74;102240.03;5018986;28;45348;-52
2021/10/23 08:15:23;;;;;;;;;42.00;34.50;;;;;20.64;41.26;102238.97;5018427;28;45420;-52
2021/10/23 08:17:48;;;;;;;;;40.50;34.25;;;;;20.62;41.14;102244.28;5018063;28;45622;-54
2021/10/23 08:20:14;;;;;;;;;34.75;31.75;;;;;20.65;41.18;102245.97;5050490;28;45277;-51
2021/10/23 08:22:40;;;;;;;;;32.50;31.25;;;;;20.62;40.69;102236.38;5018446;28;45248;-53
2021/10/23 08:25:09;;;;;;;;;33.75;31.25;;;;;20.62;41.13;102241.66;5018170;28;45490;-51
2021/10/23 08:27:36;;;;;;;;;32.25;31.25;;;;;20.64;41.08;102237.22;5000102;28;48423;-53
2021/10/23 08:30:04;;;;;;;;;33.00;28.50;;;;;20.64;40.93;102234.56;5017007;28;45790;-53
2021/10/23 08:32:29;;;;;;;;;29.50;29.00;;;;;20.63;40.63;102232.84;5016977;28;45322;-47
2021/10/23 08:34:55;;;;;;;;;28.75;26.00;;;;;20.65;40.56;102235.41;5018425;28;45605;-53
2021/10/23 08:37:21;;;;;;;;;35.50;30.75;;;;;20.64;40.66;102238.97;5016426;28;47894;-53
2021/10/23 08:39:47;;;;;;;;;27.25;23.50;;;;;20.63;41.03;102238.13;5017833;28;45394;-51
2021/10/23 08:42:14;;;;;;;;;29.75;24.75;;;;;20.61;40.66;102239.94;5017927;28;45333;-54
2021/10/23 08:44:41;;;;;;;;;24.50;21.00;;;;;20.64;40.49;102239.84;5017945;28;45385;-54
2021/10/23 08:47:07;;;;;;;;;30.25;25.25;;;;;20.64;40.89;102239.84;5017417;28;46333;-51
2021/10/23 08:49:34;;;;;;;;;21.75;20.75;;;;;20.64;40.92;102233.69;5017571;28;45274;-49
2021/10/23 08:52:00;;;;;;;;;18.00;17.00;;;;;20.60;40.98;102225.03;5017992;28;45380;-51
2021/10/23 08:54:26;;;;;;;;;22.75;19.50;;;;;20.65;40.83;102241.56;5016931;28;45374;-49
2021/10/23 08:56:51;;;;;;;;;21.50;17.00;;;;;20.63;41.18;102237.25;5017487;28;46481;-50
2021/10/23 08:59:17;;;;;;;;;19.00;18.25;;;;;20.62;40.59;102241.66;5017467;28;45935;-54
2021/10/23 09:01:42;;;;;;;;;20.00;15.00;;;;;20.65;40.35;102246.84;5017195;28;49849;-50
2021/10/23 09:04:08;;;;;;;;;15.00;14.50;;;;;20.62;40.57;102246.94;5017511;28;45440;-52
2021/10/23 09:06:36;;;;;;;;;18.00;16.75;;;;;20.64;40.76;102244.22;5017409;28;46389;-50
2021/10/23 09:09:05;;;;;;;;;13.25;13.25;;;;;20.62;40.85;102251.31;5016176;28;46135;-53
2021/10/23 09:11:38;;;;;;;;;18.75;14.25;;;;;20.60;40.60;102234.72;5017929;28;45335;-54
2021/10/23 09:14:25;;;;;;;;;17.75;14.75;;;;;20.64;40.69;102234.56;5017733;28;45280;-52
2021/10/23 09:17:09;;;;;;;;;16.50;14.00;;;;;20.62;40.73;102239.03;5017338;28;45420;-53
2021/10/23 09:19:46;;;;;;;;;15.00;15.00;;;;;20.61;40.72;102237.31;5017273;28;45340;-54
2021/10/23 09:22:22;;;;;;;;;14.00;13.75;;;;;20.60;40.39;102238.22;5017323;28;45386;-53
2021/10/23 09:24:49;;;;;;;;;16.75;15.00;;;;;20.62;40.90;102240.78;5017307;28;45266;-51
2021/10/23 09:27:16;;;;;;;;;12.50;11.25;;;;;20.62;40.87;102238.16;5017064;28;45443;-54
2021/10/23 09:29:41;;;;;;;;;7.50;6.75;;;;;20.64;40.99;102244.22;5017131;28;45790;-53
2021/10/23 09:32:11;;;;;;;;;14.75;11.00;;;;;20.62;40.58;102241.66;5017266;28;45320;-54
2021/10/23 09:34:37;;;;;;;;;10.75;10.75;;;;;20.61;40.66;102237.31;5017486;28;45371;-52
2021/10/23 09:37:03;;;;;;;;;8.75;6.50;;;;;20.61;40.79;102239.09;5017093;28;45373;-48
2021/10/23 09:39:33;;;;;;;;;11.00;8.50;;;;;20.62;40.50;102241.66;5017195;28;45449;-48
2021/10/23 09:42:16;;;;;;;;;12.25;10.75;;;;;20.61;40.45;102242.56;5016204;28;45272;-52
2021/10/23 09:45:03;;;;;;;;;10.25;10.25;;;;;20.60;40.27;102238.22;5017021;28;45488;-53
2021/10/23 09:47:47;;;;;;;;;10.00;9.75;;;;;20.61;40.73;102239.09;5016935;28;45418;-53
2021/10/23 09:50:19;;;;;;;;;8.75;8.00;;;;;20.55;40.61;102227.81;5016771;28;45766;-54
2021/10/23 09:52:54;;;;;;;;;15.25;10.00;;;;;20.55;40.86;102235.72;5016835;28;45395;-52
2021/10/23 09:55:20;;;;;;;;;13.50;10.00;;;;;20.54;40.87;102236.63;5016892;28;45448;-54
2021/10/23 09:57:47;;;;;;;;;10.50;8.00;;;;;20.56;40.60;102233.94;5016728;28;45546;-53
2021/10/23 10:00:12;;;;;;;;;9.75;8.50;;;;;20.57;40.80;102232.19;5016658;28;45845;-55
2021/10/23 10:02:42;;;;;;;;;11.25;8.00;;;;;20.55;40.40;102238.38;5016786;28;45351;-52
2021/10/23 10:05:09;;;;;;;;;8.75;7.25;;;;;20.58;40.83;102229.50;5016825;28;45326;-50
2021/10/23 10:07:35;;;;;;;;;10.50;7.50;;;;;20.60;40.80;102232.09;5016732;28;45546;-51
2021/10/23 10:10:01;;;;;;;;;9.50;8.75;;;;;20.59;40.89;102228.59;5017026;28;45694;-50
2021/10/23 10:12:29;;;;;;;;;10.50;8.00;;;;;20.63;40.97;102232.84;5016686;28;45464;-52
2021/10/23 10:14:54;;;;;;;;;5.50;4.50;;;;;20.64;40.99;102234.56;5016909;28;45508;-52
2021/10/23 10:17:21;;;;;;;;;7.25;7.00;;;;;20.64;40.66;102237.22;5016550;28;45232;-52
2021/10/23 10:19:47;;;;;;;;;6.50;6.50;;;;;20.66;40.89;102232.75;5016477;28;45898;-51
2021/10/23 10:22:13;;;;;;;;;7.25;7.25;;;;;20.66;40.61;102232.75;5016734;28;45284;-52
2021/10/23 10:24:39;;;;;;;;;7.50;7.50;;;;;20.68;40.75;102236.16;5016540;28;45426;-50
2021/10/23 10:27:07;;;;;;;;;10.00;7.00;;;;;20.67;41.01;102233.59;5016392;28;46210;-53
2021/10/23 10:29:52;;;;;;;;;8.75;8.25;;;;;20.70;40.66;102237.00;5016463;28;45256;-50
2021/10/23 10:32:39;;;;;;;;;9.00;9.00;;;;;20.72;40.83;102236.06;5016470;28;45371;-54
2021/10/23 10:35:31;;;;;;;;;10.00;10.00;;;;;20.73;41.41;102237.81;5017005;28;45166;-49
2021/10/23 10:43:19;;;;;;;;;14.00;13.00;;;;;20.75;41.91;102234.22;5016100;28;45346;-50
2021/10/23 10:45:47;;;;;;;;;13.75;13.75;;;;;20.78;42.55;102238.56;5015105;28;45499;-51
2021/10/23 10:48:15;;;;;;;;;15.25;14.00;;;;;20.78;43.11;102235.91;5015925;28;46392;-55
2021/10/23 10:51:06;;;;;;;;;17.50;15.25;;;;;20.81;42.58;102235.78;5015862;28;45863;-53
2021/10/23 10:53:33;;;;;;;;;10.75;10.50;;;;;20.79;42.87;102235.84;5018005;28;45850;-54
2021/10/23 10:55:58;;;;;;;;;18.00;15.50;;;;;20.80;43.12;102236.69;5020085;28;45603;-51
2021/10/23 10:58:47;;;;;;;;;8.67;8.00;;;;;20.81;43.69;102227.88;5019450;28;45345;-52
2021/10/23 11:01:17;;;;;;;;;19.50;16.00;;;;;20.81;44.55;102219.97;5019342;28;45801;-53
2021/10/23 11:04:06;;;;;;;;;17.50;16.50;;;;;20.81;44.75;102219.97;5019371;28;45484;-46
2021/10/23 11:06:52;;;;;;;;;15.75;15.75;;;;;20.83;44.40;102218.16;5019727;28;45242;-51
2021/10/23 11:09:19;;;;;;;;;20.50;17.75;;;;;20.83;44.51;102212.88;5019093;28;46483;-60
2021/10/23 11:11:45;;;;;;;;;20.50;16.25;;;;;20.84;44.79;102211.97;5018349;28;46085;-59
2021/10/23 11:14:19;;;;;;;;;17.50;15.25;;;;;20.85;44.40;102205.78;5019458;28;45218;-49
2021/10/23 11:16:46;;;;;;;;;14.75;14.75;;;;;20.84;44.64;102206.72;5019636;28;45282;-57
2021/10/23 11:19:17;;;;;;;;;14.25;14.25;;;;;20.83;44.47;102202.34;5019001;28;46579;-58